Aviation Digital Data Service (ADDS)

Output produced by METARs form (1822 UTC 22 November 2017)
found at http://www.aviationweather.gov/adds/metars/
 
SPHY 221700Z 2218/2318 01010KT 9999 FEW016 SCT070 TX17/2219Z TNM02/2311Z 
     TEMPO 2219/2222 9999 SCT015 BKN060 
     BECMG 2223/2302 00000KT 9999
       
TAF SPQU 221700Z 2218/2318 25011KT CAVOK TX22/2219Z TN08/2311Z 
     FM230100 02004KT CAVOK 
     BECMG 2312/2314 22008KT
       
SPHO 221700Z 2218/2318 35010KT 9999 FEW035 TX28/2219Z TN09/2311Z 
     TEMPO 2218/2221 06010KT FEW035TCU SCT090
       
SPJR 221700Z 2218/2318 17008KT 9999 SCT023 BKN043 TX25/2219Z TN12/2311Z 
     BECMG 2223/2301 00000KT BKN040
       
SPHI 221700Z 2218/2318 18016KT CAVOK TX24/2220Z TN17/2311Z 
     TEMPO 2218/2220 9999 SCT025 
     FM230400 18010KT 9999 FEW020 
     FM230800 18006KT 9999 BKN017 
     FM231700 19012KT CAVOK
       
TAF SPZO 221700Z 2218/2318 29008KT 9999 SCT043 BKN100 TX22/2219Z TN07/2311Z 
     TEMPO 2219/2222 36010KT FEW040TCU SCT060 BKN080 
     FM230100 00000KT 9999 FEW040 SCT100
       
SPLO 221700Z 2218/2318 16010KT CAVOK TX23/2219Z TN16/2311Z 
     TEMPO 2221/2223 SCT030
       
TAF SPQT 221700Z 2218/2318 03003KT 9999 BKN020 SCT100 TX34/2219Z TN23/2311Z 
     TEMPO 2303/2308 03010KT 5000 -TSRA BKN015 FEW025CB BKN080 
     TEMPO 2309/2313 00000KT 8000 BKN008 BKN100 
     BECMG 2314/2316 09003KT SCT015 BKN100
       
SPJI 221700Z 2218/2318 VRB02KT 9999 BKN030 TX34/2220Z TN17/2310Z 
     TEMPO 2223/2303 06008KT 8000 VCSH BKN020 BKN080 
     TEMPO 2309/2313 36003KT 7000 -DZRA BKN012 BKN070
       
SPJL 221700Z 2218/2318 30004KT 9999 SCT020 TX20/2219Z TN04/2310Z 
     TEMPO 2221/2301 05010KT SCT015 BKN080
       
SPSO 221700Z 2218/2318 24012KT CAVOK TX23/2220Z TN16/2310Z 
     TEMPO 2218/2220 30008KT SCT035 
     FM222100 24016KT CAVOK 
     BECMG 2304/2306 23008KT 8000 BKN020 
     TEMPO 2310/2312 5000 BR BKN010 
     FM231700 33010KT CAVOK
       
SPCL 221700Z 2218/2318 34003KT 9999 BKN020 TX34/2220Z TN24/2311Z 
     TEMPO 2223/2302 35008KT 4000 SHRA BKN010 FEW025TCU BKN080 
     TEMPO 2302/2304 VRB02KT BKN015 SCT080 
     BECMG 2310/2312 10005KT SCT015 SCT100
       
SPTU 221700Z 2218/2318 28005KT 9999 FEW040 SCT100 TX31/2220Z TN22/2311Z 
     TEMPO 2219/2222 33008KT 9999 SCT012TCU BKN070 
     FM222200 00000KT 9999 FEW020
       
SPTN 221700Z 2218/2318 23010KT CAVOK TX24/2219Z TN12/2311Z 
     FM230000 22005KT 9999 OVC025 
     BECMG 2312/2314 SCT030
       
SPYL 221700Z 2218/2318 19015KT CAVOK TX27/2219Z TN17/2311Z 
     BECMG 2222/2224 BKN030
       
SPST 221700Z 2218/2318 02007KT 9999 SCT020 SCT080 TX34/2219Z TN22/2311Z 
     TEMPO 2220/2223 SCT020 BKN080 
     FM230300 00000KT 9999 SCT025 SCT100
       
SPGM 221700Z 2218/2318 01007KT 9999 SCT020 BKN100 TX30/2219Z TN20/2311Z 
     FM222300 00000KT 9999 SCT040 BKN080
       
SPRU 221700Z 2218/2318 16010KT 9999 SCT030 TX21/2220Z TN16/2311Z 
     FM230200 15007KT 7000 OVC020 
     TEMPO 2311/2313 SCT010 OVC018 
     FM231800 17010KT 9999 SCT030
       
TAF SPME 221700Z 2218/2318 33010KT 9999 BKN013 TX26/2219Z TN21/2311Z 
     FM230000 27003KT 9999 OVC012
       
SPMS 221700Z 2218/2318 23003KT 9999 SCT015 BKN100 TX33/2219Z TN24/2311Z 
     TEMPO 2223/2301 02010KT 5000 SHRA BKN015 FEW025TCU BKN100 
     BECMG 2301/2303 32003KT SCT015 SCT100 
     TEMPO 2310/2313 00000KT 5000 BCFG BKN008 BKN080